createdAt,value
2019-01-18T00:01:21.009Z,2.80
2019-01-18T00:03:47.444Z,2.77
2019-01-18T00:06:13.845Z,3.30
2019-01-18T00:08:40.238Z,2.93
2019-01-18T00:11:06.595Z,2.87
2019-01-18T00:13:32.947Z,2.70
2019-01-18T00:15:59.280Z,3.10
2019-01-18T00:18:25.613Z,2.67
2019-01-18T00:20:51.950Z,3.03
2019-01-18T00:23:18.476Z,2.80
2019-01-18T00:25:44.818Z,2.80
2019-01-18T00:28:11.158Z,2.97
2019-01-18T00:30:37.578Z,2.80
2019-01-18T00:33:04.000Z,3.07
2019-01-18T00:35:30.437Z,3.10
2019-01-18T00:37:56.810Z,3.07
2019-01-18T00:40:32.046Z,2.83
2019-01-18T00:42:58.427Z,3.27
2019-01-18T00:45:24.759Z,3.17
2019-01-18T00:47:51.164Z,3.43
2019-01-18T00:50:17.450Z,3.30
2019-01-18T00:52:43.839Z,2.77
2019-01-18T00:55:10.166Z,2.77
2019-01-18T00:57:36.516Z,2.90
2019-01-18T01:00:02.901Z,2.70
2019-01-18T01:02:29.231Z,2.97
2019-01-18T01:04:55.723Z,2.60
2019-01-18T01:07:22.162Z,2.60
2019-01-18T01:09:48.585Z,2.67
2019-01-18T01:12:14.916Z,2.60
2019-01-18T01:14:41.230Z,2.70
2019-01-18T01:17:07.577Z,2.50
2019-01-18T01:19:33.963Z,2.50
2019-01-18T01:22:00.318Z,2.77
2019-01-18T01:24:26.720Z,2.83
2019-01-18T01:26:53.180Z,2.60
2019-01-18T01:29:19.560Z,2.20
2019-01-18T01:31:45.925Z,2.27
2019-01-18T01:34:12.277Z,2.53
2019-01-18T01:36:38.629Z,2.40
2019-01-18T01:39:04.961Z,2.30
2019-01-18T01:41:31.306Z,2.33
2019-01-18T01:43:57.646Z,2.50
2019-01-18T01:46:23.967Z,2.70
2019-01-18T01:48:50.340Z,2.60
2019-01-18T01:51:16.673Z,2.37
2019-01-18T01:53:43.015Z,2.40
2019-01-18T01:56:09.363Z,2.57
2019-01-18T01:58:35.738Z,2.40
2019-01-18T02:01:02.061Z,2.30
2019-01-18T02:03:28.547Z,2.23
2019-01-18T02:05:54.935Z,2.40
2019-01-18T02:08:21.355Z,2.30
2019-01-18T02:10:47.671Z,2.60
2019-01-18T02:13:14.008Z,2.50
2019-01-18T02:15:40.346Z,2.70
2019-01-18T02:18:06.676Z,2.07
2019-01-18T02:20:33.003Z,2.50
2019-01-18T02:22:59.326Z,2.70
2019-01-18T02:25:25.693Z,2.50
2019-01-18T02:27:52.029Z,2.40
2019-01-18T02:30:18.364Z,2.53
2019-01-18T02:32:44.718Z,2.60
2019-01-18T02:35:11.089Z,2.90
2019-01-18T02:37:37.430Z,2.27
2019-01-18T02:40:03.756Z,2.30
2019-01-18T02:42:30.127Z,2.53
2019-01-18T02:44:56.408Z,2.57
2019-01-18T02:47:22.844Z,2.60
2019-01-18T02:49:49.176Z,2.80
2019-01-18T02:52:15.591Z,2.50
2019-01-18T02:54:42.023Z,2.77
2019-01-18T02:57:08.360Z,2.60
2019-01-18T02:59:34.690Z,2.60
2019-01-18T03:02:01.060Z,3.07
2019-01-18T03:04:27.399Z,2.70
2019-01-18T03:06:53.729Z,2.77
2019-01-18T03:09:20.089Z,2.97
2019-01-18T03:11:46.419Z,2.43
2019-01-18T03:14:12.773Z,2.63
2019-01-18T03:16:39.203Z,2.80
2019-01-18T03:19:05.585Z,2.77
2019-01-18T03:21:31.914Z,3.13
2019-01-18T03:23:58.297Z,3.07
2019-01-18T03:26:24.636Z,3.20
2019-01-18T03:28:51.071Z,3.40
2019-01-18T03:31:17.449Z,3.10
2019-01-18T03:33:43.774Z,3.80
2019-01-18T03:36:10.103Z,3.67
2019-01-18T03:38:36.433Z,3.63
2019-01-18T03:41:02.770Z,3.83
2019-01-18T03:43:29.093Z,3.00
2019-01-18T03:45:55.497Z,3.50
2019-01-18T03:48:21.825Z,3.20
2019-01-18T03:50:48.190Z,3.47
2019-01-18T03:53:14.555Z,3.57
2019-01-18T03:55:40.918Z,3.40
2019-01-18T03:58:07.258Z,3.37
2019-01-18T04:00:33.660Z,3.40
2019-01-18T04:02:59.953Z,3.60
2019-01-18T04:05:26.288Z,10.67
2019-01-18T04:07:52.670Z,12.17
2019-01-18T04:10:19.003Z,6.57
2019-01-18T04:12:45.325Z,4.80
2019-01-18T04:15:11.673Z,4.07
2019-01-18T04:17:38.103Z,4.67
2019-01-18T04:20:04.416Z,3.93
2019-01-18T04:22:30.842Z,4.80
2019-01-18T04:24:57.175Z,3.73
2019-01-18T04:27:23.564Z,3.93
2019-01-18T04:29:49.902Z,4.07
2019-01-18T04:32:16.283Z,3.70
2019-01-18T04:34:42.614Z,3.43
2019-01-18T04:37:08.958Z,3.33
2019-01-18T04:39:35.289Z,3.47
2019-01-18T04:42:01.642Z,3.77
2019-01-18T04:44:28.025Z,3.90
2019-01-18T04:46:54.358Z,3.60
2019-01-18T04:49:20.682Z,3.47
2019-01-18T04:51:47.019Z,3.90
2019-01-18T04:54:13.430Z,3.00
2019-01-18T04:56:39.777Z,3.40
2019-01-18T04:59:06.103Z,2.80
2019-01-18T05:01:32.430Z,3.30
2019-01-18T05:03:58.765Z,3.00
2019-01-18T05:06:25.182Z,3.07
2019-01-18T05:08:51.564Z,3.03
2019-01-18T05:11:17.966Z,2.83
2019-01-18T05:13:44.306Z,2.90
2019-01-18T05:16:10.636Z,3.20
2019-01-18T05:18:37.068Z,3.50
2019-01-18T05:21:03.402Z,3.40
2019-01-18T05:23:29.752Z,3.90
2019-01-18T05:25:56.161Z,4.43
2019-01-18T05:28:22.494Z,5.90
2019-01-18T05:30:48.822Z,4.67
2019-01-18T05:33:15.237Z,5.80
2019-01-18T05:35:41.564Z,4.00
2019-01-18T05:38:07.955Z,4.53
2019-01-18T05:40:34.314Z,4.47
2019-01-18T05:43:00.633Z,5.13
2019-01-18T05:45:26.962Z,5.07
2019-01-18T05:47:53.307Z,5.33
2019-01-18T05:50:19.682Z,5.23
2019-01-18T05:52:46.013Z,4.20
2019-01-18T05:55:12.448Z,4.33
2019-01-18T05:57:38.849Z,4.60
2019-01-18T06:00:05.184Z,4.70
2019-01-18T06:02:31.652Z,4.40
2019-01-18T06:04:58.040Z,4.60
2019-01-18T06:07:24.375Z,5.43
2019-01-18T06:09:50.704Z,5.30
2019-01-18T06:12:17.052Z,5.73
2019-01-18T06:14:43.396Z,6.10
2019-01-18T06:17:09.735Z,5.20
2019-01-18T06:19:36.056Z,5.60
2019-01-18T06:22:02.388Z,4.97
2019-01-18T06:24:28.793Z,4.70
2019-01-18T06:26:55.199Z,4.93
2019-01-18T06:29:21.555Z,4.70
2019-01-18T06:31:47.963Z,4.20
2019-01-18T06:34:14.297Z,4.40
2019-01-18T06:36:40.722Z,5.03
2019-01-18T06:39:07.006Z,5.20
2019-01-18T06:41:33.334Z,4.63
2019-01-18T06:43:59.762Z,4.13
2019-01-18T06:46:26.314Z,4.00
2019-01-18T06:48:52.735Z,4.20
2019-01-18T06:51:19.097Z,3.60
2019-01-18T06:53:45.432Z,3.73
2019-01-18T06:56:11.806Z,4.00
2019-01-18T06:58:38.151Z,4.33
2019-01-18T07:01:08.468Z,4.87
2019-01-18T07:03:30.994Z,5.20
2019-01-18T07:05:57.348Z,4.73
2019-01-18T07:08:23.781Z,5.10
2019-01-18T07:10:50.133Z,5.30
2019-01-18T07:13:16.941Z,4.73
2019-01-18T07:15:43.273Z,5.17
2019-01-18T07:18:09.652Z,4.83
2019-01-18T07:20:35.944Z,5.40
2019-01-18T07:23:02.372Z,5.63
2019-01-18T07:25:28.725Z,5.43
2019-01-18T07:27:55.124Z,5.40
2019-01-18T07:30:21.452Z,5.37
2019-01-18T07:32:47.789Z,5.20
2019-01-18T07:35:14.153Z,5.60
2019-01-18T07:37:40.492Z,5.80
2019-01-18T07:40:06.830Z,5.60
2019-01-18T07:42:33.160Z,5.40
2019-01-18T07:44:59.568Z,5.20
2019-01-18T07:47:28.082Z,5.43
2019-01-18T07:49:54.451Z,6.17
2019-01-18T07:52:20.755Z,5.60
2019-01-18T07:54:47.092Z,5.37
2019-01-18T07:57:13.463Z,5.60
2019-01-18T07:59:39.802Z,5.37
2019-01-18T08:02:06.181Z,6.13
2019-01-18T08:04:32.518Z,6.40
2019-01-18T08:06:58.905Z,5.40
2019-01-18T08:09:25.302Z,5.77
2019-01-18T08:11:52.864Z,4.80
2019-01-18T08:14:19.153Z,5.40
2019-01-18T08:16:45.556Z,5.80
2019-01-18T08:19:11.880Z,5.37
2019-01-18T08:21:38.219Z,5.33
2019-01-18T08:24:04.564Z,5.07
2019-01-18T08:26:30.899Z,4.97
2019-01-18T08:28:59.871Z,5.50
2019-01-18T08:31:29.048Z,4.40
2019-01-18T08:33:52.536Z,4.10
2019-01-18T08:36:18.878Z,4.23
2019-01-18T08:38:45.269Z,4.20
2019-01-18T08:41:12.988Z,4.30
2019-01-18T08:43:37.985Z,4.10
2019-01-18T08:46:04.323Z,4.53
2019-01-18T08:48:30.670Z,4.53
2019-01-18T08:50:57.005Z,4.43
2019-01-18T08:53:23.350Z,4.30
2019-01-18T08:55:50.754Z,4.10
2019-01-18T08:58:17.119Z,4.03
2019-01-18T09:00:43.471Z,4.13
2019-01-18T09:03:09.829Z,4.90
2019-01-18T09:05:37.469Z,4.27
2019-01-18T09:08:04.105Z,4.27
2019-01-18T09:10:30.456Z,4.40
2019-01-18T09:12:57.002Z,3.90
2019-01-18T09:15:23.342Z,3.90
2019-01-18T09:17:49.714Z,3.60
2019-01-18T09:20:16.109Z,3.43
2019-01-18T09:22:42.482Z,3.83
2019-01-18T09:25:08.930Z,3.63
2019-01-18T09:27:35.277Z,3.80
2019-01-18T09:30:01.604Z,4.17
2019-01-18T09:32:28.023Z,3.90
2019-01-18T09:34:54.969Z,3.97
2019-01-18T09:37:20.895Z,3.00
2019-01-18T09:39:47.279Z,3.50
2019-01-18T09:42:13.620Z,4.20
2019-01-18T09:44:40.019Z,3.60
2019-01-18T09:47:07.448Z,4.23
2019-01-18T09:49:32.785Z,3.27
2019-01-18T09:51:59.180Z,3.50
2019-01-18T09:54:25.613Z,3.50
2019-01-18T09:56:52.036Z,3.30
2019-01-18T09:59:18.426Z,4.27
2019-01-18T10:01:49.481Z,3.83
2019-01-18T10:04:12.310Z,4.13
2019-01-18T10:06:38.701Z,4.47
2019-01-18T10:09:05.043Z,4.70
2019-01-18T10:11:31.498Z,5.40
2019-01-18T10:13:57.843Z,4.70
2019-01-18T10:16:24.183Z,4.60
2019-01-18T10:18:50.586Z,4.30
2019-01-18T10:21:17.002Z,5.20
2019-01-18T10:23:43.430Z,6.97
2019-01-18T10:26:09.780Z,5.60
2019-01-18T10:28:36.148Z,5.30
2019-01-18T10:31:02.471Z,5.53
2019-01-18T10:33:29.706Z,5.50
2019-01-18T10:35:56.049Z,5.50
2019-01-18T10:38:22.377Z,6.50
2019-01-18T10:40:48.758Z,5.87
2019-01-18T10:43:15.098Z,6.10
2019-01-18T10:45:41.532Z,4.67
2019-01-18T10:48:07.866Z,4.80
2019-01-18T10:50:34.193Z,5.37
2019-01-18T10:53:00.602Z,4.70
2019-01-18T10:55:27.936Z,5.23
2019-01-18T10:57:54.328Z,5.27
2019-01-18T11:00:20.662Z,5.00
2019-01-18T11:02:47.047Z,5.50
2019-01-18T11:05:13.480Z,5.70
2019-01-18T11:07:39.879Z,5.60
2019-01-18T11:10:06.283Z,5.10
2019-01-18T11:12:32.695Z,5.13
2019-01-18T11:14:59.174Z,4.40
2019-01-18T11:17:25.657Z,3.93
2019-01-18T11:19:52.437Z,4.50
2019-01-18T11:22:18.921Z,4.90
2019-01-18T11:24:45.296Z,5.73
2019-01-18T11:27:11.686Z,5.13
2019-01-18T11:29:38.046Z,5.40
2019-01-18T11:32:04.425Z,5.90
2019-01-18T11:34:30.915Z,5.20
2019-01-18T11:36:58.267Z,5.13
2019-01-18T11:39:24.875Z,5.57
2019-01-18T11:41:51.305Z,4.77
2019-01-18T11:44:17.735Z,4.77
2019-01-18T11:46:44.066Z,4.60
2019-01-18T11:49:12.199Z,3.83
2019-01-18T11:51:38.676Z,4.30
2019-01-18T11:54:05.042Z,4.03
2019-01-18T11:56:31.529Z,4.00
2019-01-18T11:58:58.026Z,4.17
2019-01-18T12:01:24.434Z,4.70
2019-01-18T12:03:50.851Z,4.60
2019-01-18T12:06:17.207Z,4.80
2019-01-18T12:08:44.496Z,4.53
2019-01-18T12:11:11.065Z,4.07
2019-01-18T12:13:37.475Z,3.70
2019-01-18T12:16:06.077Z,3.50
2019-01-18T12:18:32.481Z,3.57
2019-01-18T12:20:59.176Z,3.87
2019-01-18T12:23:25.570Z,3.63
2019-01-18T12:25:51.984Z,3.73
2019-01-18T12:28:18.490Z,3.70
2019-01-18T12:30:44.905Z,3.83
2019-01-18T12:33:11.335Z,3.23
2019-01-18T12:35:37.734Z,4.03
2019-01-18T12:38:04.126Z,3.90
2019-01-18T12:40:30.511Z,4.00
2019-01-18T12:42:57.842Z,3.80
2019-01-18T12:45:23.265Z,3.80
2019-01-18T12:47:49.677Z,3.87
2019-01-18T12:50:16.060Z,3.53
2019-01-18T12:52:42.390Z,3.97
2019-01-18T12:55:08.933Z,3.83
2019-01-18T12:57:35.353Z,4.00
2019-01-18T13:00:01.699Z,3.30
2019-01-18T13:02:28.047Z,3.20
2019-01-18T13:04:54.458Z,3.73
2019-01-18T13:07:20.796Z,3.17
2019-01-18T13:09:47.220Z,3.77
2019-01-18T13:12:13.561Z,3.60
2019-01-18T13:14:42.171Z,3.37
2019-01-18T13:17:08.527Z,3.00
2019-01-18T13:19:34.920Z,2.93
2019-01-18T13:22:01.292Z,3.60
2019-01-18T13:24:27.664Z,3.00
2019-01-18T13:26:54.068Z,2.80
2019-01-18T13:29:20.461Z,2.90
2019-01-18T13:31:46.831Z,3.50
2019-01-18T13:34:15.440Z,3.70
2019-01-18T13:36:41.792Z,3.17
2019-01-18T13:39:08.163Z,3.47
2019-01-18T13:41:34.532Z,3.00
2019-01-18T13:44:00.872Z,3.10
2019-01-18T13:46:27.380Z,3.23
2019-01-18T13:48:53.805Z,3.10
2019-01-18T13:51:20.164Z,3.00
2019-01-18T13:53:46.568Z,2.83
2019-01-18T13:56:12.909Z,3.40
2019-01-18T13:58:41.408Z,2.70
2019-01-18T14:01:07.799Z,3.57
2019-01-18T14:03:34.146Z,3.37
2019-01-18T14:06:00.510Z,3.43
2019-01-18T14:08:26.853Z,3.30
2019-01-18T14:10:53.249Z,3.17
2019-01-18T14:13:19.613Z,3.57
2019-01-18T14:15:46.001Z,3.43
2019-01-18T14:18:12.367Z,2.93
2019-01-18T14:20:38.764Z,3.47
2019-01-18T14:23:05.215Z,3.10
2019-01-18T14:25:31.551Z,3.40
2019-01-18T14:27:57.923Z,3.00
2019-01-18T14:30:24.305Z,3.60
2019-01-18T14:32:55.467Z,3.47
2019-01-18T14:35:16.983Z,3.10
2019-01-18T14:37:43.503Z,3.20
2019-01-18T14:40:10.050Z,3.20
2019-01-18T14:42:36.432Z,3.50
2019-01-18T14:45:02.865Z,3.80
2019-01-18T14:47:29.195Z,3.30
2019-01-18T14:49:55.610Z,3.33
2019-01-18T14:52:21.956Z,3.27
2019-01-18T14:54:48.298Z,3.90
2019-01-18T14:57:14.740Z,3.10
2019-01-18T14:59:41.110Z,3.17
2019-01-18T15:02:07.444Z,3.80
2019-01-18T15:04:33.851Z,3.53
2019-01-18T15:07:00.208Z,3.10
2019-01-18T15:09:26.574Z,3.90
2019-01-18T15:11:52.910Z,3.27
2019-01-18T15:14:19.291Z,3.17
2019-01-18T15:16:45.627Z,3.63
2019-01-18T15:19:12.051Z,3.30
2019-01-18T15:21:38.486Z,3.50
2019-01-18T15:24:04.826Z,3.00
2019-01-18T15:26:31.168Z,3.80
2019-01-18T15:28:57.626Z,3.30
2019-01-18T15:31:24.104Z,3.50
2019-01-18T15:33:50.516Z,3.77
2019-01-18T15:36:16.917Z,3.87
2019-01-18T15:38:43.326Z,3.90
2019-01-18T15:41:09.796Z,3.53
2019-01-18T15:43:36.100Z,3.60
2019-01-18T15:46:02.479Z,4.60
2019-01-18T15:48:28.820Z,4.40
2019-01-18T15:50:55.230Z,4.70
2019-01-18T15:53:21.564Z,4.33
2019-01-18T15:55:47.902Z,4.50
2019-01-18T15:58:14.276Z,4.53
2019-01-18T16:00:40.626Z,5.40
2019-01-18T16:03:06.952Z,5.40
2019-01-18T16:05:33.280Z,5.30
2019-01-18T16:07:59.636Z,5.03
2019-01-18T16:10:26.067Z,5.03
2019-01-18T16:12:52.402Z,4.80
2019-01-18T16:15:18.751Z,5.63
2019-01-18T16:17:45.186Z,6.03
2019-01-18T16:20:11.521Z,6.70
2019-01-18T16:22:37.867Z,5.03
2019-01-18T16:25:04.258Z,6.00
2019-01-18T16:27:30.595Z,5.87
2019-01-18T16:29:56.945Z,4.80
2019-01-18T16:32:23.288Z,5.00
2019-01-18T16:34:49.635Z,6.63
2019-01-18T16:37:15.978Z,5.40
2019-01-18T16:39:42.309Z,5.17
2019-01-18T16:42:08.672Z,6.00
2019-01-18T16:44:35.112Z,4.57
2019-01-18T16:47:01.442Z,4.90
2019-01-18T16:49:31.070Z,4.43
2019-01-18T16:51:57.391Z,4.77
2019-01-18T16:54:23.724Z,4.47
2019-01-18T16:56:50.101Z,4.40
2019-01-18T16:59:16.537Z,4.40
2019-01-18T17:01:42.901Z,4.10
2019-01-18T17:04:09.235Z,4.67
2019-01-18T17:06:35.601Z,4.63
2019-01-18T17:09:02.002Z,3.80
2019-01-18T17:11:28.371Z,4.13
2019-01-18T17:13:54.745Z,4.80
2019-01-18T17:16:21.092Z,4.23
2019-01-18T17:18:47.416Z,3.97
2019-01-18T17:21:13.753Z,3.70
2019-01-18T17:23:40.117Z,4.20
2019-01-18T17:26:06.444Z,3.77
2019-01-18T17:28:32.799Z,4.50
2019-01-18T17:30:59.132Z,4.00
2019-01-18T17:33:25.511Z,3.90
2019-01-18T17:35:51.842Z,4.03
2019-01-18T17:38:18.242Z,3.80
2019-01-18T17:40:44.576Z,3.87
2019-01-18T17:43:11.031Z,3.07
2019-01-18T17:45:37.395Z,3.30
2019-01-18T17:48:03.738Z,3.70
2019-01-18T17:50:30.076Z,3.70
2019-01-18T17:52:56.454Z,4.40
2019-01-18T17:55:22.839Z,3.70
2019-01-18T17:57:49.167Z,4.00
2019-01-18T18:00:15.563Z,3.80
2019-01-18T18:02:41.915Z,3.70
2019-01-18T18:05:08.259Z,3.80
2019-01-18T18:07:34.638Z,3.73
2019-01-18T18:10:01.025Z,3.50
2019-01-18T18:12:27.381Z,3.97
2019-01-18T18:14:53.732Z,3.40
2019-01-18T18:17:20.140Z,3.67
2019-01-18T18:19:46.495Z,3.50
2019-01-18T18:22:12.837Z,3.63
2019-01-18T18:24:39.240Z,3.63
2019-01-18T18:27:05.531Z,3.90
2019-01-18T18:29:31.870Z,3.40
2019-01-18T18:31:58.265Z,3.90
2019-01-18T18:34:24.605Z,3.90
2019-01-18T18:36:50.937Z,4.17
2019-01-18T18:39:17.266Z,3.87
2019-01-18T18:41:43.656Z,3.40
2019-01-18T18:44:10.137Z,3.87
2019-01-18T18:46:36.459Z,3.60
2019-01-18T18:49:02.798Z,3.57
2019-01-18T18:51:29.145Z,4.20
2019-01-18T18:53:55.513Z,4.30
2019-01-18T18:56:21.887Z,4.20
2019-01-18T18:58:48.218Z,4.03
2019-01-18T19:01:14.548Z,3.60
2019-01-18T19:03:41.235Z,3.73
2019-01-18T19:06:07.248Z,3.53
2019-01-18T19:08:33.578Z,3.87
2019-01-18T19:10:59.919Z,3.57
2019-01-18T19:13:26.270Z,3.70
2019-01-18T19:15:52.615Z,4.20
2019-01-18T19:18:18.971Z,3.80
2019-01-18T19:20:45.291Z,3.67
2019-01-18T19:23:11.629Z,3.60
2019-01-18T19:25:38.014Z,3.40
2019-01-18T19:28:04.346Z,4.37
2019-01-18T19:30:30.686Z,4.07
2019-01-18T19:32:57.074Z,4.10
2019-01-18T19:35:23.405Z,3.80
2019-01-18T19:37:49.819Z,4.13
2019-01-18T19:40:16.158Z,4.30
2019-01-18T19:42:42.595Z,4.60
2019-01-18T19:45:08.925Z,4.40
2019-01-18T19:47:35.257Z,4.40
2019-01-18T19:50:01.595Z,4.40
2019-01-18T19:52:27.920Z,4.13
2019-01-18T19:54:54.251Z,4.50
2019-01-18T19:57:20.589Z,4.57
2019-01-18T19:59:46.976Z,4.60
2019-01-18T20:02:13.350Z,4.27
2019-01-18T20:04:39.737Z,4.77
2019-01-18T20:07:06.114Z,5.20
2019-01-18T20:09:32.418Z,4.90
2019-01-18T20:11:58.747Z,4.60
2019-01-18T20:14:25.146Z,5.17
2019-01-18T20:16:51.442Z,4.67
2019-01-18T20:19:18.527Z,4.20
2019-01-18T20:21:44.142Z,5.00
2019-01-18T20:24:10.476Z,4.47
2019-01-18T20:26:36.802Z,5.20
2019-01-18T20:29:03.159Z,4.90
2019-01-18T20:31:29.497Z,4.90
2019-01-18T20:33:55.896Z,5.43
2019-01-18T20:36:22.276Z,5.27
2019-01-18T20:38:48.629Z,5.00
2019-01-18T20:41:14.954Z,5.70
2019-01-18T20:43:41.336Z,6.03
2019-01-18T20:46:07.668Z,5.97
2019-01-18T20:48:33.990Z,5.50
2019-01-18T20:51:00.356Z,5.30
2019-01-18T20:53:26.725Z,5.20
2019-01-18T20:55:53.072Z,4.47
2019-01-18T20:58:19.418Z,5.77
2019-01-18T21:00:45.772Z,5.03
2019-01-18T21:03:12.146Z,5.47
2019-01-18T21:05:38.478Z,6.30
2019-01-18T21:08:04.841Z,6.40
2019-01-18T21:10:31.198Z,5.70
2019-01-18T21:12:57.529Z,6.57
2019-01-18T21:15:23.849Z,5.73
2019-01-18T21:17:50.199Z,5.80
2019-01-18T21:20:16.636Z,6.10
2019-01-18T21:22:43.070Z,6.17
2019-01-18T21:25:09.434Z,6.10
2019-01-18T21:27:35.781Z,5.40
2019-01-18T21:30:02.129Z,6.20
2019-01-18T21:32:28.441Z,6.27
2019-01-18T21:34:54.821Z,6.77
2019-01-18T21:37:21.145Z,5.63
2019-01-18T21:39:47.483Z,5.33
2019-01-18T21:42:13.894Z,5.53
2019-01-18T21:44:40.176Z,5.80
2019-01-18T21:47:06.486Z,6.03
2019-01-18T21:49:32.862Z,6.40
2019-01-18T21:51:59.148Z,5.67
2019-01-18T21:54:25.467Z,5.63
2019-01-18T21:56:51.879Z,6.47
2019-01-18T21:59:18.126Z,5.20
2019-01-18T22:01:44.462Z,5.90
2019-01-18T22:04:10.833Z,5.83
2019-01-18T22:06:37.183Z,5.80
2019-01-18T22:09:03.547Z,5.73
2019-01-18T22:11:29.908Z,5.90
2019-01-18T22:13:56.277Z,5.50
2019-01-18T22:16:22.618Z,6.43
2019-01-18T22:18:49.012Z,5.90
2019-01-18T22:21:15.365Z,6.13
2019-01-18T22:23:41.694Z,5.07
2019-01-18T22:26:08.152Z,5.40
2019-01-18T22:28:34.489Z,5.73
2019-01-18T22:31:00.882Z,5.00
2019-01-18T22:33:27.212Z,5.57
2019-01-18T22:35:53.552Z,5.23
2019-01-18T22:38:19.939Z,5.57
2019-01-18T22:40:46.266Z,5.13
2019-01-18T22:43:12.634Z,5.07
2019-01-18T22:45:38.961Z,5.30
2019-01-18T22:48:05.291Z,4.60
2019-01-18T22:50:31.615Z,4.87
2019-01-18T22:52:58.010Z,4.83
2019-01-18T22:55:24.368Z,5.10
2019-01-18T22:57:50.722Z,5.03
2019-01-18T23:00:17.073Z,4.43
2019-01-18T23:02:43.477Z,4.87
2019-01-18T23:05:09.868Z,4.70
2019-01-18T23:07:36.196Z,4.50
2019-01-18T23:10:02.526Z,5.07
2019-01-18T23:12:28.923Z,4.50
2019-01-18T23:14:55.260Z,4.70
2019-01-18T23:17:21.590Z,4.50
2019-01-18T23:19:47.926Z,4.47
2019-01-18T23:22:14.303Z,4.73
2019-01-18T23:24:40.633Z,4.83
2019-01-18T23:27:06.985Z,4.67
2019-01-18T23:29:33.367Z,4.87
2019-01-18T23:31:59.738Z,4.93
2019-01-18T23:34:27.183Z,4.80
2019-01-18T23:36:52.380Z,5.37
2019-01-18T23:39:18.727Z,5.17
2019-01-18T23:41:45.100Z,4.90
2019-01-18T23:44:11.438Z,5.60
2019-01-18T23:46:37.815Z,4.70
2019-01-18T23:49:04.132Z,4.63
2019-01-18T23:51:30.501Z,4.70
2019-01-18T23:53:56.827Z,5.47
2019-01-18T23:56:23.155Z,4.37
2019-01-18T23:58:49.497Z,5.03
